createdAt,value
2018-11-14T00:00:29.379Z,22.03
2018-11-14T00:02:59.432Z,23.03
2018-11-14T00:05:28.681Z,22.23
2018-11-14T00:07:57.936Z,23.90
2018-11-14T00:10:27.227Z,22.67
2018-11-14T00:12:56.493Z,23.73
2018-11-14T00:15:26.377Z,24.63
2018-11-14T00:17:55.861Z,26.33
2018-11-14T00:20:25.200Z,26.90
2018-11-14T00:22:54.488Z,27.67
2018-11-14T00:25:24.324Z,26.87
2018-11-14T00:27:53.615Z,27.53
2018-11-14T00:30:24.107Z,28.23
2018-11-14T00:32:53.624Z,28.13
2018-11-14T00:35:22.852Z,26.97
2018-11-14T00:37:52.295Z,26.63
2018-11-14T00:40:22.091Z,28.73
2018-11-14T00:42:51.782Z,28.47
2018-11-14T00:45:22.266Z,29.20
2018-11-14T00:47:52.066Z,31.23
2018-11-14T00:50:22.408Z,30.23
2018-11-14T00:52:51.659Z,30.03
2018-11-14T00:55:22.542Z,31.17
2018-11-14T00:57:52.693Z,29.80
2018-11-14T01:00:25.944Z,29.80
2018-11-14T01:02:55.450Z,30.50
2018-11-14T01:05:25.535Z,30.57
2018-11-14T01:07:54.807Z,30.50
2018-11-14T01:10:24.049Z,32.67
2018-11-14T01:12:53.324Z,31.37
2018-11-14T01:15:23.413Z,31.97
2018-11-14T01:17:52.652Z,33.20
2018-11-14T01:20:22.589Z,33.57
2018-11-14T01:22:51.960Z,33.53
2018-11-14T01:25:21.212Z,33.30
2018-11-14T01:27:50.501Z,34.17
2018-11-14T01:30:23.936Z,34.43
2018-11-14T01:32:54.045Z,33.43
2018-11-14T01:35:24.066Z,33.83
2018-11-14T01:37:53.299Z,36.07
2018-11-14T01:40:24.410Z,36.17
2018-11-14T01:42:55.013Z,35.53
2018-11-14T01:45:24.284Z,37.13
2018-11-14T01:47:53.648Z,39.33
2018-11-14T01:50:23.017Z,39.93
2018-11-14T01:52:52.270Z,41.10
2018-11-14T01:55:21.906Z,44.03
2018-11-14T01:57:51.190Z,46.53
2018-11-14T02:00:22.807Z,48.17
2018-11-14T02:02:52.144Z,51.37
2018-11-14T02:05:21.491Z,52.37
2018-11-14T02:07:50.728Z,53.40
2018-11-14T02:10:20.803Z,56.30
2018-11-14T02:12:50.226Z,59.17
2018-11-14T02:15:23.597Z,58.33
2018-11-14T02:17:53.437Z,60.67
2018-11-14T02:20:22.682Z,63.50
2018-11-14T02:22:51.974Z,64.40
2018-11-14T02:25:21.218Z,67.20
2018-11-14T02:27:50.482Z,67.83
2018-11-14T02:30:22.626Z,68.40
2018-11-14T02:32:51.865Z,68.40
2018-11-14T02:35:21.140Z,71.80
2018-11-14T02:37:50.504Z,71.10
2018-11-14T02:40:21.331Z,73.53
2018-11-14T02:42:51.249Z,75.40
2018-11-14T02:45:20.515Z,72.17
2018-11-14T02:47:49.780Z,73.40
2018-11-14T02:50:19.388Z,75.70
2018-11-14T02:52:48.714Z,77.63
2018-11-14T02:55:18.581Z,78.17
2018-11-14T02:57:48.069Z,80.40
2018-11-14T03:00:19.743Z,78.90
2018-11-14T03:02:49.154Z,79.07
2018-11-14T03:05:18.543Z,81.10
2018-11-14T03:07:47.792Z,79.90
2018-11-14T03:10:19.371Z,82.67
2018-11-14T03:12:48.660Z,82.37
2018-11-14T03:15:19.759Z,83.57
2018-11-14T03:17:48.983Z,84.20
2018-11-14T03:20:20.263Z,80.87
2018-11-14T03:22:49.563Z,81.60
2018-11-14T03:25:18.895Z,81.67
2018-11-14T03:27:49.363Z,82.63
2018-11-14T03:30:19.109Z,87.37
2018-11-14T03:32:48.405Z,83.70
2018-11-14T03:35:17.747Z,86.40
2018-11-14T03:37:47.037Z,83.47
2018-11-14T03:40:17.268Z,81.50
2018-11-14T03:42:46.641Z,82.67
2018-11-14T03:45:16.152Z,81.40
2018-11-14T03:47:45.482Z,82.80
2018-11-14T03:50:14.824Z,78.97
2018-11-14T03:52:44.087Z,77.33
2018-11-14T03:55:13.388Z,76.00
2018-11-14T03:57:42.785Z,74.53
2018-11-14T04:00:14.678Z,74.90
2018-11-14T04:02:45.140Z,74.67
2018-11-14T04:05:14.497Z,77.20
2018-11-14T04:07:43.861Z,71.90
2018-11-14T04:10:14.080Z,75.93
2018-11-14T04:12:43.980Z,75.50
2018-11-14T04:15:14.311Z,74.70
2018-11-14T04:17:43.611Z,78.30
2018-11-14T04:20:16.076Z,76.77
2018-11-14T04:22:45.982Z,73.33
2018-11-14T04:25:17.773Z,75.97
2018-11-14T04:27:48.382Z,75.83
2018-11-14T04:30:19.939Z,71.50
2018-11-14T04:32:49.568Z,75.97
2018-11-14T04:35:19.558Z,72.67
2018-11-14T04:37:49.796Z,72.43
2018-11-14T04:40:21.590Z,75.57
2018-11-14T04:42:51.358Z,74.67
2018-11-14T04:45:23.849Z,74.40
2018-11-14T04:47:53.230Z,74.37
2018-11-14T04:50:24.397Z,73.53
2018-11-14T04:52:54.080Z,74.10
2018-11-14T04:55:24.403Z,77.50
2018-11-14T04:57:53.654Z,78.30
2018-11-14T05:00:24.223Z,78.00
2018-11-14T05:02:53.565Z,75.37
2018-11-14T05:05:23.974Z,75.70
2018-11-14T05:07:53.265Z,78.27
2018-11-14T05:10:23.787Z,78.43
2018-11-14T05:12:53.400Z,78.70
2018-11-14T05:15:23.825Z,78.90
2018-11-14T05:17:53.666Z,81.27
2018-11-14T05:20:23.244Z,81.77
2018-11-14T05:22:52.769Z,84.17
2018-11-14T05:25:22.032Z,81.20
2018-11-14T05:27:51.287Z,79.67
2018-11-14T05:30:23.191Z,79.13
2018-11-14T05:32:52.928Z,85.47
2018-11-14T05:35:22.185Z,80.63
2018-11-14T05:37:51.461Z,84.07
2018-11-14T05:40:21.969Z,80.53
2018-11-14T05:42:52.610Z,78.70
2018-11-14T05:45:25.320Z,84.17
2018-11-14T05:47:54.611Z,81.87
2018-11-14T05:50:24.380Z,83.87
2018-11-14T05:52:53.632Z,82.13
2018-11-14T05:55:22.968Z,81.00
2018-11-14T05:57:52.343Z,89.50
2018-11-14T06:00:27.146Z,81.33
2018-11-14T06:02:56.940Z,86.20
2018-11-14T06:05:26.561Z,85.10
2018-11-14T06:07:55.896Z,85.50
2018-11-14T06:10:25.800Z,83.90
2018-11-14T06:12:55.235Z,85.53
2018-11-14T06:15:24.597Z,84.23
2018-11-14T06:17:55.066Z,85.47
2018-11-14T06:20:24.364Z,84.77
2018-11-14T06:22:54.299Z,86.60
2018-11-14T06:25:41.470Z,85.07
2018-11-14T06:28:11.556Z,82.33
2018-11-14T06:30:42.048Z,85.83
2018-11-14T06:33:11.980Z,82.37
2018-11-14T06:35:41.215Z,81.40
2018-11-14T06:38:10.472Z,83.67
2018-11-14T06:40:39.709Z,79.67
2018-11-14T06:43:09.033Z,77.17
2018-11-14T06:45:38.292Z,77.47
2018-11-14T06:48:07.664Z,74.73
2018-11-14T06:50:37.007Z,72.43
2018-11-14T06:53:07.203Z,72.97
2018-11-14T06:55:36.483Z,73.30
2018-11-14T06:58:06.365Z,73.87
2018-11-14T07:00:36.218Z,76.93
2018-11-14T07:03:06.844Z,67.77
2018-11-14T07:05:36.147Z,65.97
2018-11-14T07:08:05.709Z,68.27
2018-11-14T07:10:36.212Z,76.37
2018-11-14T07:13:08.173Z,67.13
2018-11-14T07:15:37.977Z,63.20
2018-11-14T07:18:08.213Z,63.83
2018-11-14T07:20:38.929Z,62.70
2018-11-14T07:23:08.424Z,63.50
2018-11-14T07:25:37.834Z,62.43
2018-11-14T07:28:07.245Z,66.93
2018-11-14T07:30:37.768Z,62.70
2018-11-14T07:33:09.857Z,63.40
2018-11-14T07:35:39.143Z,60.17
2018-11-14T07:38:46.851Z,62.60
2018-11-14T07:41:21.211Z,58.13
2018-11-14T07:43:50.578Z,59.97
2018-11-14T07:46:20.412Z,60.63
2018-11-14T07:48:50.447Z,57.00
2018-11-14T07:51:20.323Z,57.10
2018-11-14T07:53:49.636Z,58.03
2018-11-14T07:56:18.961Z,55.10
2018-11-14T07:58:48.573Z,53.87
2018-11-14T08:01:17.939Z,56.33
2018-11-14T08:03:47.213Z,58.17
2018-11-14T08:06:16.549Z,52.27
2018-11-14T08:08:46.237Z,49.43
2018-11-14T08:11:15.601Z,48.03
2018-11-14T08:13:46.174Z,47.97
2018-11-14T08:16:15.508Z,44.63
2018-11-14T08:18:44.871Z,45.17
2018-11-14T08:21:14.628Z,42.77
2018-11-14T08:23:43.863Z,41.67
2018-11-14T08:26:13.127Z,42.00
2018-11-14T08:28:42.466Z,41.10
2018-11-14T08:31:11.711Z,40.67
2018-11-14T08:33:41.096Z,39.73
2018-11-14T08:36:10.363Z,38.80
2018-11-14T08:38:39.833Z,40.43
2018-11-14T08:41:09.076Z,38.23
2018-11-14T08:43:38.324Z,39.80
2018-11-14T08:46:07.731Z,39.37
2018-11-14T08:48:37.053Z,38.03
2018-11-14T08:51:06.923Z,38.37
2018-11-14T08:53:36.173Z,37.07
2018-11-14T08:56:05.772Z,34.90
2018-11-14T08:58:35.099Z,33.07
2018-11-14T09:01:05.328Z,34.30
2018-11-14T09:03:35.531Z,33.67
2018-11-14T09:06:04.938Z,34.37
2018-11-14T09:08:34.195Z,34.43
2018-11-14T09:11:03.534Z,32.27
2018-11-14T09:13:33.497Z,29.97
2018-11-14T09:16:02.776Z,31.03
2018-11-14T09:18:32.117Z,32.47
2018-11-14T09:21:01.317Z,31.20
2018-11-14T09:23:30.618Z,30.77
2018-11-14T09:25:59.915Z,28.83
2018-11-14T09:28:29.169Z,28.63
2018-11-14T09:30:58.440Z,26.90
2018-11-14T09:33:27.814Z,28.23
2018-11-14T09:35:57.108Z,25.87
2018-11-14T09:38:26.337Z,27.47
2018-11-14T09:40:55.681Z,24.57
2018-11-14T09:43:24.862Z,24.20
2018-11-14T09:45:54.071Z,23.63
2018-11-14T09:48:23.329Z,22.17
2018-11-14T09:50:53.230Z,22.73
2018-11-14T09:53:22.744Z,21.17
2018-11-14T09:55:51.918Z,22.63
2018-11-14T09:58:21.160Z,21.40
2018-11-14T10:00:50.466Z,20.83
2018-11-14T10:03:19.759Z,20.63
2018-11-14T10:05:49.110Z,21.50
2018-11-14T10:08:18.644Z,19.37
2018-11-14T10:10:48.179Z,19.47
2018-11-14T10:13:17.473Z,17.67
2018-11-14T10:15:46.776Z,18.70
2018-11-14T10:18:16.048Z,17.67
2018-11-14T10:20:45.409Z,18.00
2018-11-14T10:23:14.691Z,17.07
2018-11-14T10:25:43.976Z,17.10
2018-11-14T10:28:13.239Z,16.07
2018-11-14T10:30:42.642Z,16.23
2018-11-14T10:33:11.889Z,16.03
2018-11-14T10:35:41.146Z,16.47
2018-11-14T10:38:10.441Z,16.20
2018-11-14T10:40:39.796Z,14.73
2018-11-14T10:43:09.190Z,14.80
2018-11-14T10:45:38.363Z,14.50
2018-11-14T10:48:07.635Z,14.83
2018-11-14T10:50:36.888Z,13.07
2018-11-14T10:53:06.257Z,13.57
2018-11-14T10:55:35.557Z,13.60
2018-11-14T10:58:05.366Z,14.47
2018-11-14T11:00:39.974Z,13.90
2018-11-14T11:04:15.221Z,14.40
2018-11-14T11:06:49.824Z,13.67
2018-11-14T11:09:24.453Z,13.20
2018-11-14T11:11:59.246Z,13.30
2018-11-14T11:14:32.376Z,12.87
2018-11-14T11:17:07.035Z,12.37
2018-11-14T11:19:36.344Z,12.73
2018-11-14T11:22:05.968Z,12.53
2018-11-14T11:24:35.206Z,11.80
2018-11-14T11:27:05.356Z,11.50
2018-11-14T11:29:34.688Z,13.30
2018-11-14T11:32:04.030Z,11.67
2018-11-14T11:34:33.246Z,11.77
2018-11-14T11:37:02.557Z,11.10
2018-11-14T11:39:31.818Z,11.83
2018-11-14T11:42:01.204Z,11.37
2018-11-14T11:44:30.543Z,10.63
2018-11-14T11:46:59.786Z,11.17
2018-11-14T11:49:29.088Z,10.97
2018-11-14T11:51:58.520Z,11.30
2018-11-14T11:54:27.805Z,11.87
2018-11-14T11:56:57.683Z,11.73
2018-11-14T11:59:27.018Z,10.53
2018-11-14T12:01:57.076Z,10.43
2018-11-14T12:04:26.425Z,9.80
2018-11-14T12:06:55.775Z,9.77
2018-11-14T12:09:25.016Z,10.33
2018-11-14T12:11:54.286Z,9.97
2018-11-14T12:14:23.531Z,9.70
2018-11-14T12:16:52.765Z,9.70
2018-11-14T12:19:22.027Z,9.80
2018-11-14T12:21:51.336Z,9.60
2018-11-14T12:24:20.762Z,10.03
2018-11-14T12:26:50.177Z,9.53
2018-11-14T12:29:19.570Z,8.80
2018-11-14T12:31:48.883Z,9.20
2018-11-14T12:34:18.213Z,8.70
2018-11-14T12:36:47.488Z,9.10
2018-11-14T12:39:16.803Z,8.00
2018-11-14T12:41:46.090Z,8.17
2018-11-14T12:44:15.567Z,8.33
2018-11-14T12:46:44.809Z,8.60
2018-11-14T12:49:14.569Z,8.17
2018-11-14T12:51:43.845Z,8.50
2018-11-14T12:54:13.098Z,7.43
2018-11-14T12:56:42.367Z,7.50
2018-11-14T12:59:11.687Z,7.63
2018-11-14T13:01:41.065Z,7.57
2018-11-14T13:04:10.538Z,7.60
2018-11-14T13:06:39.864Z,7.40
2018-11-14T13:09:10.094Z,7.67
2018-11-14T13:11:39.473Z,8.67
2018-11-14T13:14:08.810Z,7.53
2018-11-14T13:16:38.141Z,7.70
2018-11-14T13:19:07.481Z,8.13
2018-11-14T13:21:36.788Z,8.13
2018-11-14T13:24:06.291Z,8.90
2018-11-14T13:26:35.677Z,7.80
2018-11-14T13:29:05.084Z,7.73
2018-11-14T13:31:34.250Z,8.33
2018-11-14T13:34:03.521Z,7.47
2018-11-14T13:36:32.812Z,7.80
2018-11-14T13:39:02.147Z,7.70
2018-11-14T13:41:31.441Z,8.63
2018-11-14T13:44:00.763Z,9.27
2018-11-14T13:46:30.037Z,9.20
2018-11-14T13:48:59.331Z,9.37
2018-11-14T13:51:29.183Z,8.83
2018-11-14T13:53:58.520Z,9.37
2018-11-14T13:56:27.809Z,8.50
2018-11-14T13:58:57.053Z,9.03
2018-11-14T14:01:26.565Z,8.97
2018-11-14T14:03:55.785Z,8.73
2018-11-14T14:06:25.050Z,8.70
2018-11-14T14:08:54.350Z,9.50
2018-11-14T14:11:23.681Z,9.70
2018-11-14T14:13:58.167Z,8.47
2018-11-14T14:16:27.596Z,8.37
2018-11-14T14:18:57.841Z,8.43
2018-11-14T14:21:27.224Z,8.43
2018-11-14T14:23:56.493Z,8.93
2018-11-14T14:26:26.045Z,9.20
2018-11-14T14:28:55.320Z,9.53
2018-11-14T14:31:24.574Z,8.70
2018-11-14T14:33:53.912Z,8.83
2018-11-14T14:36:23.183Z,9.13
2018-11-14T14:38:52.467Z,9.33
2018-11-14T14:41:21.722Z,8.97
2018-11-14T14:43:51.025Z,9.17
2018-11-14T14:46:20.269Z,9.47
2018-11-14T14:48:49.590Z,9.10
2018-11-14T14:51:18.912Z,9.10
2018-11-14T14:53:48.318Z,9.00
2018-11-14T14:56:17.618Z,9.60
2018-11-14T14:58:46.884Z,8.83
2018-11-14T15:01:16.164Z,9.57
2018-11-14T15:03:45.414Z,10.70
2018-11-14T15:06:15.501Z,9.60
2018-11-14T15:08:44.757Z,10.23
2018-11-14T15:11:13.989Z,10.47
2018-11-14T15:13:43.264Z,10.07
2018-11-14T15:16:12.562Z,10.67
2018-11-14T15:18:41.828Z,10.20
2018-11-14T15:21:11.198Z,12.77
2018-11-14T15:23:40.506Z,11.47
2018-11-14T15:26:09.805Z,10.40
2018-11-14T15:28:39.181Z,10.47
2018-11-14T15:31:08.452Z,10.73
2018-11-14T15:33:37.712Z,10.00
2018-11-14T15:36:07.202Z,10.67
2018-11-14T15:38:36.341Z,10.77
2018-11-14T15:41:06.215Z,10.73
2018-11-14T15:43:35.600Z,11.10
2018-11-14T15:46:04.894Z,11.07
2018-11-14T15:48:34.154Z,11.13
2018-11-14T15:51:03.588Z,10.67
2018-11-14T15:53:32.864Z,11.53
2018-11-14T15:56:02.220Z,11.70
2018-11-14T15:58:32.238Z,11.60
2018-11-14T16:01:01.586Z,13.87
2018-11-14T16:03:30.815Z,12.77
2018-11-14T16:06:00.189Z,12.07
2018-11-14T16:08:29.588Z,10.40
2018-11-14T16:10:58.893Z,10.97
2018-11-14T16:13:28.264Z,11.63
2018-11-14T16:15:57.560Z,11.90
2018-11-14T16:18:26.841Z,12.07
2018-11-14T16:20:56.048Z,14.30
2018-11-14T16:23:25.292Z,13.87
2018-11-14T16:25:54.564Z,14.27
2018-11-14T16:28:23.848Z,13.40
2018-11-14T16:30:53.251Z,13.60
2018-11-14T16:33:23.246Z,13.93
2018-11-14T16:35:52.632Z,13.90
2018-11-14T16:38:21.952Z,13.00
2018-11-14T16:40:51.298Z,13.83
2018-11-14T16:43:20.576Z,14.23
2018-11-14T16:45:49.847Z,14.40
2018-11-14T16:48:19.160Z,14.47
2018-11-14T16:50:48.493Z,12.77
2018-11-14T16:53:19.164Z,14.30
2018-11-14T16:55:50.244Z,13.33
2018-11-14T16:58:19.397Z,13.77
2018-11-14T17:00:48.747Z,17.37
2018-11-14T17:03:17.968Z,16.13
2018-11-14T17:05:47.258Z,14.83
2018-11-14T17:08:16.568Z,14.83
2018-11-14T17:10:46.644Z,14.57
2018-11-14T17:13:15.888Z,13.83
2018-11-14T17:15:45.216Z,14.77
2018-11-14T17:18:15.143Z,13.93
2018-11-14T17:20:45.282Z,14.80
2018-11-14T17:23:14.790Z,14.73
2018-11-14T17:25:44.207Z,14.37
2018-11-14T17:28:13.428Z,14.87
2018-11-14T17:30:42.963Z,15.47
2018-11-14T17:33:12.292Z,14.93
2018-11-14T17:35:41.498Z,15.77
2018-11-14T17:38:10.956Z,15.47
2018-11-14T17:40:40.244Z,15.17
2018-11-14T17:43:09.584Z,15.73
2018-11-14T17:45:39.321Z,15.83
2018-11-14T17:48:08.582Z,15.90
2018-11-14T17:50:37.879Z,16.13
2018-11-14T17:53:07.466Z,15.63
2018-11-14T17:55:36.888Z,16.63
2018-11-14T17:58:06.182Z,16.30
2018-11-14T18:00:35.599Z,16.33
2018-11-14T18:03:05.173Z,16.37
2018-11-14T18:05:34.329Z,17.17
2018-11-14T18:08:03.600Z,16.80
2018-11-14T18:10:32.932Z,17.53
2018-11-14T18:13:02.862Z,17.00
2018-11-14T18:15:32.170Z,17.13
2018-11-14T18:18:01.490Z,17.37
2018-11-14T18:20:32.131Z,17.80
2018-11-14T18:23:01.693Z,17.60
2018-11-14T18:25:31.017Z,17.93
2018-11-14T18:28:00.304Z,17.73
2018-11-14T18:30:30.740Z,18.67
2018-11-14T18:33:01.341Z,17.90
2018-11-14T18:35:30.973Z,18.77
2018-11-14T18:38:00.768Z,19.70
2018-11-14T18:40:31.548Z,18.77
2018-11-14T18:43:00.872Z,18.67
2018-11-14T18:45:31.595Z,18.93
2018-11-14T18:48:01.608Z,18.77
2018-11-14T18:50:30.998Z,19.27
2018-11-14T18:53:00.293Z,20.60
2018-11-14T18:55:31.827Z,20.13
2018-11-14T18:58:02.069Z,20.47
2018-11-14T19:00:33.703Z,19.97
2018-11-14T19:03:03.026Z,19.73
2018-11-14T19:05:32.318Z,21.53
2018-11-14T19:08:01.704Z,21.40
2018-11-14T19:10:32.436Z,21.83
2018-11-14T19:13:01.757Z,21.40
2018-11-14T19:15:32.473Z,21.53
2018-11-14T19:18:01.782Z,21.13
2018-11-14T19:20:32.308Z,22.70
2018-11-14T19:23:02.313Z,23.90
2018-11-14T19:25:33.060Z,23.87
2018-11-14T19:28:03.025Z,21.30
2018-11-14T19:30:33.730Z,23.80
2018-11-14T19:33:03.369Z,23.00
2018-11-14T19:35:32.672Z,23.27
2018-11-14T19:38:02.655Z,22.27
2018-11-14T19:40:35.889Z,21.93
2018-11-14T19:43:08.308Z,21.30
2018-11-14T19:45:38.571Z,21.13
2018-11-14T19:48:08.345Z,21.67
2018-11-14T19:50:37.771Z,21.73
2018-11-14T19:53:06.992Z,23.03
2018-11-14T19:55:36.872Z,23.53
2018-11-14T19:58:06.756Z,23.10
2018-11-14T20:00:37.426Z,23.93
2018-11-14T20:03:07.039Z,22.40
2018-11-14T20:05:36.397Z,22.20
2018-11-14T20:08:06.198Z,23.07
2018-11-14T20:10:35.581Z,22.83
2018-11-14T20:13:04.818Z,22.53
2018-11-14T20:15:35.635Z,22.00
2018-11-14T20:18:05.235Z,21.73
2018-11-14T20:20:35.921Z,22.10
2018-11-14T20:23:05.393Z,24.53
2018-11-14T20:25:35.191Z,24.17
2018-11-14T20:28:04.508Z,25.70
2018-11-14T20:30:36.533Z,24.67
2018-11-14T20:33:08.714Z,25.83
2018-11-14T20:35:38.228Z,24.70
2018-11-14T20:38:07.518Z,24.70
2018-11-14T20:40:38.892Z,25.87
2018-11-14T20:43:22.365Z,26.33
2018-11-14T20:45:53.560Z,25.97
2018-11-14T20:48:26.814Z,26.03
2018-11-14T20:50:56.111Z,28.50
2018-11-14T20:53:25.690Z,26.00
2018-11-14T20:55:55.096Z,25.40
2018-11-14T20:58:24.387Z,26.40
2018-11-14T21:00:53.674Z,26.57
2018-11-14T21:03:24.401Z,27.90
2018-11-14T21:05:55.248Z,28.07
2018-11-14T21:08:25.560Z,29.50
2018-11-14T21:10:55.154Z,29.57
2018-11-14T21:13:24.491Z,30.73
2018-11-14T21:15:53.755Z,30.50
2018-11-14T21:18:23.083Z,30.50
2018-11-14T21:20:52.384Z,28.80
2018-11-14T21:23:21.669Z,29.13
2018-11-14T21:25:51.011Z,29.93
2018-11-14T21:28:20.287Z,30.10
2018-11-14T21:30:49.563Z,30.07
2018-11-14T21:33:18.846Z,28.90
2018-11-14T21:35:48.090Z,29.60
2018-11-14T21:38:17.459Z,30.33
2018-11-14T21:40:46.678Z,31.23
2018-11-14T21:43:15.981Z,31.53
2018-11-14T21:45:45.243Z,32.57
2018-11-14T21:48:15.840Z,33.60
2018-11-14T21:50:45.947Z,34.50
2018-11-14T21:53:15.350Z,33.57
2018-11-14T21:55:44.553Z,34.70
2018-11-14T21:58:13.986Z,37.97
2018-11-14T22:00:43.332Z,37.00
2018-11-14T22:03:12.685Z,36.27
2018-11-14T22:05:43.599Z,37.10
2018-11-14T22:08:12.872Z,38.07
2018-11-14T22:10:42.102Z,37.53
2018-11-14T22:13:11.492Z,39.37
2018-11-14T22:15:40.796Z,38.43
2018-11-14T22:18:10.121Z,36.70
2018-11-14T22:20:39.354Z,36.83
2018-11-14T22:23:08.616Z,35.83
2018-11-14T22:25:37.978Z,36.00
2018-11-14T22:28:07.546Z,37.70
2018-11-14T22:30:36.644Z,38.63
2018-11-14T22:33:06.010Z,40.30
2018-11-14T22:35:36.058Z,41.17
2018-11-14T22:38:05.407Z,38.37
2018-11-14T22:40:34.672Z,39.67
2018-11-14T22:43:03.948Z,39.27
2018-11-14T22:45:33.736Z,40.93
2018-11-14T22:48:02.993Z,41.67
2018-11-14T22:50:32.278Z,41.50
2018-11-14T22:53:01.548Z,41.37
2018-11-14T22:55:30.793Z,41.13
2018-11-14T22:58:00.042Z,41.90
2018-11-14T23:00:31.365Z,42.07
2018-11-14T23:03:02.036Z,41.40
2018-11-14T23:05:31.456Z,42.67
2018-11-14T23:08:01.100Z,43.53
2018-11-14T23:10:30.405Z,42.33
2018-11-14T23:12:59.687Z,43.27
2018-11-14T23:15:29.098Z,44.43
2018-11-14T23:17:58.324Z,44.10
2018-11-14T23:20:27.594Z,43.93
2018-11-14T23:22:57.041Z,44.87
2018-11-14T23:25:26.250Z,43.17
2018-11-14T23:27:56.358Z,43.10
2018-11-14T23:30:27.212Z,42.57
2018-11-14T23:32:57.492Z,42.70
2018-11-14T23:35:31.155Z,41.57
2018-11-14T23:38:01.768Z,42.13
2018-11-14T23:40:31.160Z,41.60
2018-11-14T23:43:00.463Z,40.50
2018-11-14T23:45:30.343Z,41.13
2018-11-14T23:47:59.617Z,40.77
2018-11-14T23:50:30.183Z,40.53
2018-11-14T23:53:00.501Z,41.10
2018-11-14T23:55:30.528Z,40.43
2018-11-14T23:58:00.862Z,38.60
